sensor_id;sensor_type;location;lat;lon;timestamp;temperature;humidity
13203;DHT22;6666;51.626;7.530;2023-03-23T00:01:28;11.80;99.90
13203;DHT22;6666;51.626;7.530;2023-03-23T00:03:58;11.80;99.90
13203;DHT22;6666;51.626;7.530;2023-03-23T00:06:27;11.80;99.90
13203;DHT22;6666;51.626;7.530;2023-03-23T00:09:00;11.80;99.90
13203;DHT22;6666;51.626;7.530;2023-03-23T00:11:31;11.80;99.90
13203;DHT22;6666;51.626;7.530;2023-03-23T00:13:59;11.70;99.90
13203;DHT22;6666;51.626;7.530;2023-03-23T00:16:30;11.70;99.90
13203;DHT22;6666;51.626;7.530;2023-03-23T00:19:00;11.70;99.90
13203;DHT22;6666;51.626;7.530;2023-03-23T00:21:29;11.60;99.90
13203;DHT22;6666;51.626;7.530;2023-03-23T00:24:04;11.70;99.90
13203;DHT22;6666;51.626;7.530;2023-03-23T00:26:33;11.70;99.90
13203;DHT22;6666;51.626;7.530;2023-03-23T00:29:01;11.80;99.90
13203;DHT22;6666;51.626;7.530;2023-03-23T00:31:29;11.70;99.90
13203;DHT22;6666;51.626;7.530;2023-03-23T00:33:59;11.70;99.90
13203;DHT22;6666;51.626;7.530;2023-03-23T00:36:30;11.70;99.90
13203;DHT22;6666;51.626;7.530;2023-03-23T00:38:58;11.80;99.90
13203;DHT22;6666;51.626;7.530;2023-03-23T00:41:28;11.70;99.90
13203;DHT22;6666;51.626;7.530;2023-03-23T00:43:56;11.70;99.90
13203;DHT22;6666;51.626;7.530;2023-03-23T00:46:23;11.70;99.90
13203;DHT22;6666;51.626;7.530;2023-03-23T00:48:51;11.70;99.90
13203;DHT22;6666;51.626;7.530;2023-03-23T00:51:19;11.70;99.90
13203;DHT22;6666;51.626;7.530;2023-03-23T00:53:47;11.70;99.90
13203;DHT22;6666;51.626;7.530;2023-03-23T00:56:14;11.70;99.90
13203;DHT22;6666;51.626;7.530;2023-03-23T00:58:43;11.70;99.90
13203;DHT22;6666;51.626;7.530;2023-03-23T01:01:11;11.70;99.90
13203;DHT22;6666;51.626;7.530;2023-03-23T01:03:40;11.80;99.90
13203;DHT22;6666;51.626;7.530;2023-03-23T01:06:09;11.80;99.90
13203;DHT22;6666;51.626;7.530;2023-03-23T01:08:42;11.80;99.90
13203;DHT22;6666;51.626;7.530;2023-03-23T01:11:13;11.80;99.90
13203;DHT22;6666;51.626;7.530;2023-03-23T01:13:43;11.80;99.90
13203;DHT22;6666;51.626;7.530;2023-03-23T01:16:12;11.80;99.90
13203;DHT22;6666;51.626;7.530;2023-03-23T01:18:39;11.80;99.90
13203;DHT22;6666;51.626;7.530;2023-03-23T01:21:08;11.80;99.90
13203;DHT22;6666;51.626;7.530;2023-03-23T01:23:37;11.80;99.90
13203;DHT22;6666;51.626;7.530;2023-03-23T01:26:06;11.80;99.90
13203;DHT22;6666;51.626;7.530;2023-03-23T01:28:34;11.80;99.90
13203;DHT22;6666;51.626;7.530;2023-03-23T01:31:04;11.80;99.90
13203;DHT22;6666;51.626;7.530;2023-03-23T01:33:32;11.80;99.90
13203;DHT22;6666;51.626;7.530;2023-03-23T01:36:03;11.80;99.90
13203;DHT22;6666;51.626;7.530;2023-03-23T01:38:31;11.90;99.90
13203;DHT22;6666;51.626;7.530;2023-03-23T01:40:59;11.80;99.90
13203;DHT22;6666;51.626;7.530;2023-03-23T01:43:26;11.90;99.90
13203;DHT22;6666;51.626;7.530;2023-03-23T01:45:53;11.90;99.90
13203;DHT22;6666;51.626;7.530;2023-03-23T01:48:25;11.90;99.90
13203;DHT22;6666;51.626;7.530;2023-03-23T01:50:56;11.90;99.90
13203;DHT22;6666;51.626;7.530;2023-03-23T01:53:36;11.90;99.90
13203;DHT22;6666;51.626;7.530;2023-03-23T01:56:06;11.90;99.90
13203;DHT22;6666;51.626;7.530;2023-03-23T01:58:38;12.00;99.90
13203;DHT22;6666;51.626;7.530;2023-03-23T02:01:09;12.00;99.90
13203;DHT22;6666;51.626;7.530;2023-03-23T02:03:43;12.10;99.90
13203;DHT22;6666;51.626;7.530;2023-03-23T02:06:11;12.00;99.90
13203;DHT22;6666;51.626;7.530;2023-03-23T02:08:56;12.00;99.90
13203;DHT22;6666;51.626;7.530;2023-03-23T02:11:24;11.90;99.90
13203;DHT22;6666;51.626;7.530;2023-03-23T02:13:52;11.90;99.90
13203;DHT22;6666;51.626;7.530;2023-03-23T02:16:31;11.90;99.90
13203;DHT22;6666;51.626;7.530;2023-03-23T02:22:21;11.90;99.90
13203;DHT22;6666;51.626;7.530;2023-03-23T02:25:11;11.90;99.90
13203;DHT22;6666;51.626;7.530;2023-03-23T02:28:08;11.90;99.90
13203;DHT22;6666;51.626;7.530;2023-03-23T02:31:08;11.90;99.90
13203;DHT22;6666;51.626;7.530;2023-03-23T02:33:49;12.00;99.90
13203;DHT22;6666;51.626;7.530;2023-03-23T02:36:22;12.00;99.90
13203;DHT22;6666;51.626;7.530;2023-03-23T02:38:57;11.90;99.90
13203;DHT22;6666;51.626;7.530;2023-03-23T02:41:31;12.00;99.90
13203;DHT22;6666;51.626;7.530;2023-03-23T02:44:02;12.00;99.90
13203;DHT22;6666;51.626;7.530;2023-03-23T02:46:30;12.00;99.90
13203;DHT22;6666;51.626;7.530;2023-03-23T02:49:00;12.10;99.90
13203;DHT22;6666;51.626;7.530;2023-03-23T02:51:29;12.00;99.90
13203;DHT22;6666;51.626;7.530;2023-03-23T02:53:58;12.00;99.90
13203;DHT22;6666;51.626;7.530;2023-03-23T02:56:27;12.00;99.90
13203;DHT22;6666;51.626;7.530;2023-03-23T02:58:56;12.00;99.90
13203;DHT22;6666;51.626;7.530;2023-03-23T03:04:32;11.90;99.90
13203;DHT22;6666;51.626;7.530;2023-03-23T03:07:35;11.90;99.90
13203;DHT22;6666;51.626;7.530;2023-03-23T03:10:10;11.80;99.90
13203;DHT22;6666;51.626;7.530;2023-03-23T03:12:46;11.80;99.90
13203;DHT22;6666;51.626;7.530;2023-03-23T03:15:21;11.80;99.90
13203;DHT22;6666;51.626;7.530;2023-03-23T03:17:57;11.80;99.90
13203;DHT22;6666;51.626;7.530;2023-03-23T03:20:29;11.80;99.90
13203;DHT22;6666;51.626;7.530;2023-03-23T03:22:59;11.80;99.90
13203;DHT22;6666;51.626;7.530;2023-03-23T03:25:29;11.80;99.90
13203;DHT22;6666;51.626;7.530;2023-03-23T03:27:58;11.80;99.90
13203;DHT22;6666;51.626;7.530;2023-03-23T03:30:38;11.80;99.90
13203;DHT22;6666;51.626;7.530;2023-03-23T03:33:06;11.80;99.90
13203;DHT22;6666;51.626;7.530;2023-03-23T03:35:36;11.80;99.90
13203;DHT22;6666;51.626;7.530;2023-03-23T03:38:05;11.70;99.90
13203;DHT22;6666;51.626;7.530;2023-03-23T03:40:33;11.80;99.90
13203;DHT22;6666;51.626;7.530;2023-03-23T03:43:01;11.80;99.90
13203;DHT22;6666;51.626;7.530;2023-03-23T03:45:29;11.80;99.90
13203;DHT22;6666;51.626;7.530;2023-03-23T03:47:56;11.70;99.90
13203;DHT22;6666;51.626;7.530;2023-03-23T03:50:23;11.80;99.90
13203;DHT22;6666;51.626;7.530;2023-03-23T03:52:52;11.80;99.90
13203;DHT22;6666;51.626;7.530;2023-03-23T03:55:19;11.80;99.90
13203;DHT22;6666;51.626;7.530;2023-03-23T03:57:48;11.90;99.90
13203;DHT22;6666;51.626;7.530;2023-03-23T04:00:41;11.80;99.90
13203;DHT22;6666;51.626;7.530;2023-03-23T04:03:09;11.80;99.90
13203;DHT22;6666;51.626;7.530;2023-03-23T04:05:47;11.90;99.90
13203;DHT22;6666;51.626;7.530;2023-03-23T04:08:15;11.90;99.90
13203;DHT22;6666;51.626;7.530;2023-03-23T04:10:43;11.90;99.90
13203;DHT22;6666;51.626;7.530;2023-03-23T04:13:11;11.90;99.90
13203;DHT22;6666;51.626;7.530;2023-03-23T04:15:45;11.90;99.90
13203;DHT22;6666;51.626;7.530;2023-03-23T04:18:14;11.90;99.90
13203;DHT22;6666;51.626;7.530;2023-03-23T04:20:45;11.90;99.90
13203;DHT22;6666;51.626;7.530;2023-03-23T04:23:19;11.90;99.90
13203;DHT22;6666;51.626;7.530;2023-03-23T04:25:50;11.90;99.90
13203;DHT22;6666;51.626;7.530;2023-03-23T04:28:19;11.90;99.90
13203;DHT22;6666;51.626;7.530;2023-03-23T04:31:07;11.90;99.90
13203;DHT22;6666;51.626;7.530;2023-03-23T04:33:44;11.90;99.90
13203;DHT22;6666;51.626;7.530;2023-03-23T04:36:13;11.90;99.90
13203;DHT22;6666;51.626;7.530;2023-03-23T04:38:53;11.90;99.90
13203;DHT22;6666;51.626;7.530;2023-03-23T04:41:23;11.90;99.90
13203;DHT22;6666;51.626;7.530;2023-03-23T04:44:29;11.90;99.90
13203;DHT22;6666;51.626;7.530;2023-03-23T04:47:06;11.90;99.90
13203;DHT22;6666;51.626;7.530;2023-03-23T04:49:39;11.90;99.90
13203;DHT22;6666;51.626;7.530;2023-03-23T04:52:20;11.90;99.90
13203;DHT22;6666;51.626;7.530;2023-03-23T04:54:53;12.00;99.90
13203;DHT22;6666;51.626;7.530;2023-03-23T04:57:21;11.90;99.90
13203;DHT22;6666;51.626;7.530;2023-03-23T05:00:10;11.90;99.90
13203;DHT22;6666;51.626;7.530;2023-03-23T05:02:45;12.00;99.90
13203;DHT22;6666;51.626;7.530;2023-03-23T05:05:19;12.00;99.90
13203;DHT22;6666;51.626;7.530;2023-03-23T05:07:48;12.10;99.90
13203;DHT22;6666;51.626;7.530;2023-03-23T05:10:20;12.10;99.90
13203;DHT22;6666;51.626;7.530;2023-03-23T05:12:49;12.10;99.90
13203;DHT22;6666;51.626;7.530;2023-03-23T05:15:18;12.10;99.90
13203;DHT22;6666;51.626;7.530;2023-03-23T05:17:45;12.10;99.90
13203;DHT22;6666;51.626;7.530;2023-03-23T05:20:18;12.10;99.90
13203;DHT22;6666;51.626;7.530;2023-03-23T05:22:57;12.10;99.90
13203;DHT22;6666;51.626;7.530;2023-03-23T05:25:34;12.10;99.90
13203;DHT22;6666;51.626;7.530;2023-03-23T05:28:16;12.00;99.90
13203;DHT22;6666;51.626;7.530;2023-03-23T05:30:52;12.10;99.90
13203;DHT22;6666;51.626;7.530;2023-03-23T05:33:21;12.10;99.90
13203;DHT22;6666;51.626;7.530;2023-03-23T05:36:00;12.10;99.90
13203;DHT22;6666;51.626;7.530;2023-03-23T05:38:34;12.10;99.90
13203;DHT22;6666;51.626;7.530;2023-03-23T05:41:06;12.10;99.90
13203;DHT22;6666;51.626;7.530;2023-03-23T05:43:38;12.20;99.90
13203;DHT22;6666;51.626;7.530;2023-03-23T05:46:11;12.20;99.90
13203;DHT22;6666;51.626;7.530;2023-03-23T05:48:39;12.20;99.90
13203;DHT22;6666;51.626;7.530;2023-03-23T05:51:12;12.20;99.90
13203;DHT22;6666;51.626;7.530;2023-03-23T05:53:42;12.20;99.90
13203;DHT22;6666;51.626;7.530;2023-03-23T05:56:14;12.30;99.90
13203;DHT22;6666;51.626;7.530;2023-03-23T05:58:57;12.30;99.90
13203;DHT22;6666;51.626;7.530;2023-03-23T06:01:26;12.30;99.90
13203;DHT22;6666;51.626;7.530;2023-03-23T06:03:54;12.20;99.90
13203;DHT22;6666;51.626;7.530;2023-03-23T06:06:29;12.20;99.90
13203;DHT22;6666;51.626;7.530;2023-03-23T06:09:09;12.20;99.90
13203;DHT22;6666;51.626;7.530;2023-03-23T06:12:01;12.20;99.90
13203;DHT22;6666;51.626;7.530;2023-03-23T06:14:50;12.30;99.90
13203;DHT22;6666;51.626;7.530;2023-03-23T06:17:24;12.30;99.90
13203;DHT22;6666;51.626;7.530;2023-03-23T06:19:53;12.30;99.90
13203;DHT22;6666;51.626;7.530;2023-03-23T06:22:21;12.40;99.90
13203;DHT22;6666;51.626;7.530;2023-03-23T06:25:18;12.40;99.90
13203;DHT22;6666;51.626;7.530;2023-03-23T06:27:46;12.40;99.90
13203;DHT22;6666;51.626;7.530;2023-03-23T06:30:14;12.40;99.90
13203;DHT22;6666;51.626;7.530;2023-03-23T06:32:42;12.40;99.90
13203;DHT22;6666;51.626;7.530;2023-03-23T06:35:12;12.40;99.90
13203;DHT22;6666;51.626;7.530;2023-03-23T06:38:08;12.40;99.90
13203;DHT22;6666;51.626;7.530;2023-03-23T06:40:43;12.40;99.90
13203;DHT22;6666;51.626;7.530;2023-03-23T06:43:15;12.40;99.90
13203;DHT22;6666;51.626;7.530;2023-03-23T06:45:58;12.40;99.90
13203;DHT22;6666;51.626;7.530;2023-03-23T06:48:41;12.40;99.90
13203;DHT22;6666;51.626;7.530;2023-03-23T06:51:13;12.40;99.90
13203;DHT22;6666;51.626;7.530;2023-03-23T06:53:44;12.50;99.90
13203;DHT22;6666;51.626;7.530;2023-03-23T06:56:13;12.50;99.90
13203;DHT22;6666;51.626;7.530;2023-03-23T06:58:43;12.50;99.90
13203;DHT22;6666;51.626;7.530;2023-03-23T07:01:12;12.50;99.90
13203;DHT22;6666;51.626;7.530;2023-03-23T07:03:48;12.50;99.90
13203;DHT22;6666;51.626;7.530;2023-03-23T07:06:22;12.60;99.90
13203;DHT22;6666;51.626;7.530;2023-03-23T07:08:55;12.70;99.90
13203;DHT22;6666;51.626;7.530;2023-03-23T07:11:26;12.70;99.90
13203;DHT22;6666;51.626;7.530;2023-03-23T07:13:56;12.80;99.90
13203;DHT22;6666;51.626;7.530;2023-03-23T07:16:24;12.90;99.90
13203;DHT22;6666;51.626;7.530;2023-03-23T07:18:52;12.90;99.90
13203;DHT22;6666;51.626;7.530;2023-03-23T07:21:20;13.00;99.90
13203;DHT22;6666;51.626;7.530;2023-03-23T07:23:47;13.10;99.90
13203;DHT22;6666;51.626;7.530;2023-03-23T07:26:23;13.10;99.90
13203;DHT22;6666;51.626;7.530;2023-03-23T07:28:56;13.20;99.90
13203;DHT22;6666;51.626;7.530;2023-03-23T07:31:35;13.20;99.90
13203;DHT22;6666;51.626;7.530;2023-03-23T07:34:03;13.10;99.90
13203;DHT22;6666;51.626;7.530;2023-03-23T07:36:41;13.10;99.90
13203;DHT22;6666;51.626;7.530;2023-03-23T07:39:09;13.10;99.90
13203;DHT22;6666;51.626;7.530;2023-03-23T07:41:36;13.10;99.90
13203;DHT22;6666;51.626;7.530;2023-03-23T07:44:17;13.20;99.90
13203;DHT22;6666;51.626;7.530;2023-03-23T07:46:45;13.20;99.90
13203;DHT22;6666;51.626;7.530;2023-03-23T07:49:15;13.30;99.90
13203;DHT22;6666;51.626;7.530;2023-03-23T07:51:55;13.30;99.90
13203;DHT22;6666;51.626;7.530;2023-03-23T07:54:22;13.30;99.90
13203;DHT22;6666;51.626;7.530;2023-03-23T07:56:58;13.30;99.90
13203;DHT22;6666;51.626;7.530;2023-03-23T07:59:30;13.40;99.90
13203;DHT22;6666;51.626;7.530;2023-03-23T08:01:59;13.40;99.90
13203;DHT22;6666;51.626;7.530;2023-03-23T08:04:45;13.40;99.90
13203;DHT22;6666;51.626;7.530;2023-03-23T08:07:23;13.40;99.90
13203;DHT22;6666;51.626;7.530;2023-03-23T08:10:11;13.40;99.90
13203;DHT22;6666;51.626;7.530;2023-03-23T08:12:56;13.40;99.90
13203;DHT22;6666;51.626;7.530;2023-03-23T08:15:41;13.50;99.90
13203;DHT22;6666;51.626;7.530;2023-03-23T08:18:29;13.50;99.90
13203;DHT22;6666;51.626;7.530;2023-03-23T08:21:13;13.50;99.90
13203;DHT22;6666;51.626;7.530;2023-03-23T08:23:51;13.50;99.90
13203;DHT22;6666;51.626;7.530;2023-03-23T08:26:45;13.50;99.90
13203;DHT22;6666;51.626;7.530;2023-03-23T08:29:13;13.60;99.90
13203;DHT22;6666;51.626;7.530;2023-03-23T08:32:00;13.60;99.90
13203;DHT22;6666;51.626;7.530;2023-03-23T08:34:51;13.60;99.90
13203;DHT22;6666;51.626;7.530;2023-03-23T08:37:39;13.70;99.90
13203;DHT22;6666;51.626;7.530;2023-03-23T08:40:23;13.80;99.90
13203;DHT22;6666;51.626;7.530;2023-03-23T08:42:52;13.90;99.90
13203;DHT22;6666;51.626;7.530;2023-03-23T08:45:38;13.90;99.90
13203;DHT22;6666;51.626;7.530;2023-03-23T08:48:26;13.90;99.90
13203;DHT22;6666;51.626;7.530;2023-03-23T08:51:23;14.00;99.90
13203;DHT22;6666;51.626;7.530;2023-03-23T08:54:10;14.10;99.90
13203;DHT22;6666;51.626;7.530;2023-03-23T08:57:03;14.10;99.90
13203;DHT22;6666;51.626;7.530;2023-03-23T08:59:34;14.10;99.90
13203;DHT22;6666;51.626;7.530;2023-03-23T09:02:23;14.10;99.90
13203;DHT22;6666;51.626;7.530;2023-03-23T09:04:58;14.10;99.90
13203;DHT22;6666;51.626;7.530;2023-03-23T09:07:55;14.00;99.90
13203;DHT22;6666;51.626;7.530;2023-03-23T09:10:25;13.90;99.90
13203;DHT22;6666;51.626;7.530;2023-03-23T09:12:54;13.90;99.90
13203;DHT22;6666;51.626;7.530;2023-03-23T09:15:22;14.00;99.90
13203;DHT22;6666;51.626;7.530;2023-03-23T09:17:50;14.10;99.90
13203;DHT22;6666;51.626;7.530;2023-03-23T09:20:22;14.10;99.90
13203;DHT22;6666;51.626;7.530;2023-03-23T09:22:51;14.10;99.90
13203;DHT22;6666;51.626;7.530;2023-03-23T09:25:21;14.00;99.90
13203;DHT22;6666;51.626;7.530;2023-03-23T09:27:50;14.00;99.90
13203;DHT22;6666;51.626;7.530;2023-03-23T09:30:20;14.10;99.90
13203;DHT22;6666;51.626;7.530;2023-03-23T09:32:47;14.10;99.90
13203;DHT22;6666;51.626;7.530;2023-03-23T09:35:15;14.00;99.90
13203;DHT22;6666;51.626;7.530;2023-03-23T09:37:46;13.90;99.90
13203;DHT22;6666;51.626;7.530;2023-03-23T09:40:15;13.90;99.90
13203;DHT22;6666;51.626;7.530;2023-03-23T09:46:00;13.90;99.90
13203;DHT22;6666;51.626;7.530;2023-03-23T09:48:45;13.90;99.90
13203;DHT22;6666;51.626;7.530;2023-03-23T09:51:22;14.00;99.90
13203;DHT22;6666;51.626;7.530;2023-03-23T09:53:56;14.10;99.90
13203;DHT22;6666;51.626;7.530;2023-03-23T09:56:26;14.40;99.90
13203;DHT22;6666;51.626;7.530;2023-03-23T09:59:02;14.40;99.90
13203;DHT22;6666;51.626;7.530;2023-03-23T10:01:35;14.60;99.90
13203;DHT22;6666;51.626;7.530;2023-03-23T10:04:07;14.60;99.90
13203;DHT22;6666;51.626;7.530;2023-03-23T10:06:37;14.50;99.90
13203;DHT22;6666;51.626;7.530;2023-03-23T10:09:06;14.60;99.90
13203;DHT22;6666;51.626;7.530;2023-03-23T10:11:45;14.50;99.90
13203;DHT22;6666;51.626;7.530;2023-03-23T10:14:24;14.40;99.90
13203;DHT22;6666;51.626;7.530;2023-03-23T10:16:59;14.30;99.90
13203;DHT22;6666;51.626;7.530;2023-03-23T10:19:31;14.20;99.90
13203;DHT22;6666;51.626;7.530;2023-03-23T10:22:03;14.10;99.90
13203;DHT22;6666;51.626;7.530;2023-03-23T10:24:35;14.00;99.90
13203;DHT22;6666;51.626;7.530;2023-03-23T10:27:12;13.00;99.90
13203;DHT22;6666;51.626;7.530;2023-03-23T10:29:43;12.60;99.90
13203;DHT22;6666;51.626;7.530;2023-03-23T10:32:16;12.20;99.90
13203;DHT22;6666;51.626;7.530;2023-03-23T10:34:47;11.90;99.90
13203;DHT22;6666;51.626;7.530;2023-03-23T10:37:19;11.80;99.90
13203;DHT22;6666;51.626;7.530;2023-03-23T10:39:52;11.70;99.90
13203;DHT22;6666;51.626;7.530;2023-03-23T10:42:31;11.70;99.90
13203;DHT22;6666;51.626;7.530;2023-03-23T10:45:01;11.50;99.90
13203;DHT22;6666;51.626;7.530;2023-03-23T10:47:38;11.50;99.90
13203;DHT22;6666;51.626;7.530;2023-03-23T10:50:13;11.60;99.90
13203;DHT22;6666;51.626;7.530;2023-03-23T10:52:42;11.50;99.90
13203;DHT22;6666;51.626;7.530;2023-03-23T10:55:15;11.50;99.90
13203;DHT22;6666;51.626;7.530;2023-03-23T10:57:43;11.40;99.90
13203;DHT22;6666;51.626;7.530;2023-03-23T11:00:18;11.20;99.90
13203;DHT22;6666;51.626;7.530;2023-03-23T11:02:47;11.30;99.90
13203;DHT22;6666;51.626;7.530;2023-03-23T11:05:27;11.20;99.90
13203;DHT22;6666;51.626;7.530;2023-03-23T11:07:59;11.30;99.90
13203;DHT22;6666;51.626;7.530;2023-03-23T11:10:39;11.30;99.90
13203;DHT22;6666;51.626;7.530;2023-03-23T11:13:12;11.70;99.90
13203;DHT22;6666;51.626;7.530;2023-03-23T11:15:41;11.90;99.90
13203;DHT22;6666;51.626;7.530;2023-03-23T11:18:17;11.70;99.90
13203;DHT22;6666;51.626;7.530;2023-03-23T11:20:47;11.60;99.90
13203;DHT22;6666;51.626;7.530;2023-03-23T11:23:21;11.70;99.90
13203;DHT22;6666;51.626;7.530;2023-03-23T11:25:56;11.70;99.90
13203;DHT22;6666;51.626;7.530;2023-03-23T11:28:29;11.80;99.90
13203;DHT22;6666;51.626;7.530;2023-03-23T11:30:58;12.00;99.90
13203;DHT22;6666;51.626;7.530;2023-03-23T11:33:29;12.20;99.90
13203;DHT22;6666;51.626;7.530;2023-03-23T11:35:57;12.00;99.90
13203;DHT22;6666;51.626;7.530;2023-03-23T11:38:25;11.70;99.90
13203;DHT22;6666;51.626;7.530;2023-03-23T11:40:55;11.50;99.90
13203;DHT22;6666;51.626;7.530;2023-03-23T11:43:25;11.40;99.90
13203;DHT22;6666;51.626;7.530;2023-03-23T11:46:04;11.40;99.90
13203;DHT22;6666;51.626;7.530;2023-03-23T11:48:38;11.30;99.90
13203;DHT22;6666;51.626;7.530;2023-03-23T11:51:08;11.50;99.90
13203;DHT22;6666;51.626;7.530;2023-03-23T11:53:45;11.50;99.90
13203;DHT22;6666;51.626;7.530;2023-03-23T11:56:23;11.40;99.90
13203;DHT22;6666;51.626;7.530;2023-03-23T11:58:52;11.50;99.90
13203;DHT22;6666;51.626;7.530;2023-03-23T12:01:42;11.60;99.90
13203;DHT22;6666;51.626;7.530;2023-03-23T12:04:24;11.50;99.90
13203;DHT22;6666;51.626;7.530;2023-03-23T12:06:58;11.50;99.90
13203;DHT22;6666;51.626;7.530;2023-03-23T12:09:38;11.50;99.90
13203;DHT22;6666;51.626;7.530;2023-03-23T12:12:15;11.80;99.90
13203;DHT22;6666;51.626;7.530;2023-03-23T12:14:53;11.60;99.90
13203;DHT22;6666;51.626;7.530;2023-03-23T12:17:33;11.60;99.90
13203;DHT22;6666;51.626;7.530;2023-03-23T12:20:18;11.70;99.90
13203;DHT22;6666;51.626;7.530;2023-03-23T12:22:56;11.70;99.90
13203;DHT22;6666;51.626;7.530;2023-03-23T12:28:43;11.70;99.90
13203;DHT22;6666;51.626;7.530;2023-03-23T12:31:17;11.50;99.90
13203;DHT22;6666;51.626;7.530;2023-03-23T12:33:54;11.60;99.90
13203;DHT22;6666;51.626;7.530;2023-03-23T12:36:30;11.80;99.90
13203;DHT22;6666;51.626;7.530;2023-03-23T12:39:14;11.70;99.90
13203;DHT22;6666;51.626;7.530;2023-03-23T12:41:49;11.70;99.90
13203;DHT22;6666;51.626;7.530;2023-03-23T12:44:23;11.60;99.90
13203;DHT22;6666;51.626;7.530;2023-03-23T12:47:07;11.60;99.90
13203;DHT22;6666;51.626;7.530;2023-03-23T12:49:41;11.60;99.90
13203;DHT22;6666;51.626;7.530;2023-03-23T12:52:14;11.60;99.90
13203;DHT22;6666;51.626;7.530;2023-03-23T12:54:47;11.70;99.90
13203;DHT22;6666;51.626;7.530;2023-03-23T12:57:22;11.80;99.90
13203;DHT22;6666;51.626;7.530;2023-03-23T12:59:57;11.80;99.90
13203;DHT22;6666;51.626;7.530;2023-03-23T13:02:30;11.80;99.90
13203;DHT22;6666;51.626;7.530;2023-03-23T13:05:02;11.90;99.90
13203;DHT22;6666;51.626;7.530;2023-03-23T13:07:38;12.00;99.90
13203;DHT22;6666;51.626;7.530;2023-03-23T13:10:15;11.90;99.90
13203;DHT22;6666;51.626;7.530;2023-03-23T13:12:46;12.10;99.90
13203;DHT22;6666;51.626;7.530;2023-03-23T13:15:24;12.20;99.90
13203;DHT22;6666;51.626;7.530;2023-03-23T13:17:58;12.20;99.90
13203;DHT22;6666;51.626;7.530;2023-03-23T13:20:52;12.30;99.90
13203;DHT22;6666;51.626;7.530;2023-03-23T13:23:22;12.50;99.90
13203;DHT22;6666;51.626;7.530;2023-03-23T13:25:55;12.60;99.90
13203;DHT22;6666;51.626;7.530;2023-03-23T13:28:25;12.60;99.90
13203;DHT22;6666;51.626;7.530;2023-03-23T13:30:58;12.70;99.90
13203;DHT22;6666;51.626;7.530;2023-03-23T13:33:29;12.80;99.90
13203;DHT22;6666;51.626;7.530;2023-03-23T13:35:57;13.00;99.90
13203;DHT22;6666;51.626;7.530;2023-03-23T13:38:31;13.00;99.90
13203;DHT22;6666;51.626;7.530;2023-03-23T13:41:05;13.20;99.90
13203;DHT22;6666;51.626;7.530;2023-03-23T13:43:35;13.20;99.90
13203;DHT22;6666;51.626;7.530;2023-03-23T13:46:11;13.10;99.90
13203;DHT22;6666;51.626;7.530;2023-03-23T13:48:43;13.00;99.90
13203;DHT22;6666;51.626;7.530;2023-03-23T13:51:32;13.10;99.90
13203;DHT22;6666;51.626;7.530;2023-03-23T13:54:24;13.20;99.90
13203;DHT22;6666;51.626;7.530;2023-03-23T13:56:55;13.30;99.90
13203;DHT22;6666;51.626;7.530;2023-03-23T13:59:33;13.30;99.90
13203;DHT22;6666;51.626;7.530;2023-03-23T14:02:31;13.30;99.90
13203;DHT22;6666;51.626;7.530;2023-03-23T14:05:10;13.20;99.90
13203;DHT22;6666;51.626;7.530;2023-03-23T14:07:53;13.10;99.90
13203;DHT22;6666;51.626;7.530;2023-03-23T14:10:21;13.00;99.90
13203;DHT22;6666;51.626;7.530;2023-03-23T14:12:50;13.10;99.90
13203;DHT22;6666;51.626;7.530;2023-03-23T14:15:19;13.00;99.90
13203;DHT22;6666;51.626;7.530;2023-03-23T14:17:49;13.00;99.90
13203;DHT22;6666;51.626;7.530;2023-03-23T14:20:23;13.00;99.90
13203;DHT22;6666;51.626;7.530;2023-03-23T14:22:54;13.20;99.90
13203;DHT22;6666;51.626;7.530;2023-03-23T14:25:22;13.20;99.90
13203;DHT22;6666;51.626;7.530;2023-03-23T14:27:53;13.30;99.90
13203;DHT22;6666;51.626;7.530;2023-03-23T14:30:22;13.40;99.90
13203;DHT22;6666;51.626;7.530;2023-03-23T14:32:53;13.40;99.90
13203;DHT22;6666;51.626;7.530;2023-03-23T14:35:24;13.40;99.90
13203;DHT22;6666;51.626;7.530;2023-03-23T14:37:53;13.50;99.90
13203;DHT22;6666;51.626;7.530;2023-03-23T14:40:20;13.60;99.90
13203;DHT22;6666;51.626;7.530;2023-03-23T14:42:49;13.70;99.90
13203;DHT22;6666;51.626;7.530;2023-03-23T14:45:21;13.60;99.90
13203;DHT22;6666;51.626;7.530;2023-03-23T14:47:52;13.60;99.90
13203;DHT22;6666;51.626;7.530;2023-03-23T14:50:28;13.50;99.90
13203;DHT22;6666;51.626;7.530;2023-03-23T14:53:07;13.50;99.90
13203;DHT22;6666;51.626;7.530;2023-03-23T14:55:36;13.70;99.90
13203;DHT22;6666;51.626;7.530;2023-03-23T14:58:08;13.80;99.90
13203;DHT22;6666;51.626;7.530;2023-03-23T15:00:39;13.90;99.90
13203;DHT22;6666;51.626;7.530;2023-03-23T15:03:11;13.90;99.90
13203;DHT22;6666;51.626;7.530;2023-03-23T15:05:43;14.10;99.90
13203;DHT22;6666;51.626;7.530;2023-03-23T15:08:14;14.20;99.90
13203;DHT22;6666;51.626;7.530;2023-03-23T15:10:42;14.40;99.90
13203;DHT22;6666;51.626;7.530;2023-03-23T15:13:17;14.20;99.90
13203;DHT22;6666;51.626;7.530;2023-03-23T15:15:44;14.10;99.90
13203;DHT22;6666;51.626;7.530;2023-03-23T15:18:28;14.20;99.90
13203;DHT22;6666;51.626;7.530;2023-03-23T15:20:56;14.20;99.90
13203;DHT22;6666;51.626;7.530;2023-03-23T15:23:27;14.10;99.90
13203;DHT22;6666;51.626;7.530;2023-03-23T15:25:56;14.10;99.90
13203;DHT22;6666;51.626;7.530;2023-03-23T15:28:29;14.00;99.90
13203;DHT22;6666;51.626;7.530;2023-03-23T15:31:01;14.00;99.90
13203;DHT22;6666;51.626;7.530;2023-03-23T15:33:35;14.00;99.90
13203;DHT22;6666;51.626;7.530;2023-03-23T15:36:08;14.00;99.90
13203;DHT22;6666;51.626;7.530;2023-03-23T15:38:36;13.90;99.90
13203;DHT22;6666;51.626;7.530;2023-03-23T15:41:05;14.00;99.90
13203;DHT22;6666;51.626;7.530;2023-03-23T15:43:34;14.00;99.90
13203;DHT22;6666;51.626;7.530;2023-03-23T15:46:03;14.00;99.90
13203;DHT22;6666;51.626;7.530;2023-03-23T15:48:46;14.10;99.90
13203;DHT22;6666;51.626;7.530;2023-03-23T15:51:14;14.10;99.90
13203;DHT22;6666;51.626;7.530;2023-03-23T15:53:42;14.10;99.90
13203;DHT22;6666;51.626;7.530;2023-03-23T15:56:11;14.20;99.90
13203;DHT22;6666;51.626;7.530;2023-03-23T15:58:39;14.30;99.90
13203;DHT22;6666;51.626;7.530;2023-03-23T16:01:12;14.30;99.90
13203;DHT22;6666;51.626;7.530;2023-03-23T16:03:45;14.40;99.90
13203;DHT22;6666;51.626;7.530;2023-03-23T16:06:16;14.30;99.90
13203;DHT22;6666;51.626;7.530;2023-03-23T16:08:51;14.40;99.90
13203;DHT22;6666;51.626;7.530;2023-03-23T16:11:22;14.40;99.90
13203;DHT22;6666;51.626;7.530;2023-03-23T16:13:51;14.30;99.90
13203;DHT22;6666;51.626;7.530;2023-03-23T16:16:22;14.20;99.90
13203;DHT22;6666;51.626;7.530;2023-03-23T16:18:52;14.20;99.90
13203;DHT22;6666;51.626;7.530;2023-03-23T16:21:20;14.10;99.90
13203;DHT22;6666;51.626;7.530;2023-03-23T16:23:48;14.00;99.90
13203;DHT22;6666;51.626;7.530;2023-03-23T16:26:17;14.00;99.90
13203;DHT22;6666;51.626;7.530;2023-03-23T16:28:45;13.90;99.90
13203;DHT22;6666;51.626;7.530;2023-03-23T16:31:14;13.90;99.90
13203;DHT22;6666;51.626;7.530;2023-03-23T16:33:42;14.00;99.90
13203;DHT22;6666;51.626;7.530;2023-03-23T16:36:12;13.90;99.90
13203;DHT22;6666;51.626;7.530;2023-03-23T16:38:41;13.90;99.90